sensor_id;sensor_type;location;lat;lon;timestamp;temperature;humidity
75688;HTU21D;64300;45.034;38.910;2022-11-09T00:00:05;3.12;84.89
75688;HTU21D;64300;45.034;38.910;2022-11-09T00:02:31;3.11;84.84
75688;HTU21D;64300;45.034;38.910;2022-11-09T00:04:57;3.05;84.78
75688;HTU21D;64300;45.034;38.910;2022-11-09T00:07:23;3.01;84.95
75688;HTU21D;64300;45.034;38.910;2022-11-09T00:09:49;3.01;85.14
75688;HTU21D;64300;45.034;38.910;2022-11-09T00:12:15;3.02;85.16
75688;HTU21D;64300;45.034;38.910;2022-11-09T00:14:41;3.04;85.22
75688;HTU21D;64300;45.034;38.910;2022-11-09T00:17:07;3.05;85.20
75688;HTU21D;64300;45.034;38.910;2022-11-09T00:19:33;3.04;85.16
75688;HTU21D;64300;45.034;38.910;2022-11-09T00:21:59;3.06;85.13
75688;HTU21D;64300;45.034;38.910;2022-11-09T00:24:28;3.06;85.09
75688;HTU21D;64300;45.034;38.910;2022-11-09T00:26:53;3.05;85.04
75688;HTU21D;64300;45.034;38.910;2022-11-09T00:29:20;3.04;85.07
75688;HTU21D;64300;45.034;38.910;2022-11-09T00:31:47;3.02;85.51
75688;HTU21D;64300;45.034;38.910;2022-11-09T00:34:15;3.02;85.21
75688;HTU21D;64300;45.034;38.910;2022-11-09T00:36:42;3.01;85.10
75688;HTU21D;64300;45.034;38.910;2022-11-09T00:39:08;3.01;85.15
75688;HTU21D;64300;45.034;38.910;2022-11-09T00:41:34;3.00;85.15
75688;HTU21D;64300;45.034;38.910;2022-11-09T00:44:00;3.01;85.20
75688;HTU21D;64300;45.034;38.910;2022-11-09T00:46:26;3.01;85.29
75688;HTU21D;64300;45.034;38.910;2022-11-09T00:48:53;3.01;85.29
75688;HTU21D;64300;45.034;38.910;2022-11-09T00:51:20;3.00;85.27
75688;HTU21D;64300;45.034;38.910;2022-11-09T00:53:46;3.01;85.32
75688;HTU21D;64300;45.034;38.910;2022-11-09T00:56:13;3.01;85.36
75688;HTU21D;64300;45.034;38.910;2022-11-09T00:58:40;3.02;85.39
75688;HTU21D;64300;45.034;38.910;2022-11-09T01:01:13;3.04;85.41
75688;HTU21D;64300;45.034;38.910;2022-11-09T01:03:43;3.04;85.48
75688;HTU21D;64300;45.034;38.910;2022-11-09T01:06:16;3.06;85.51
75688;HTU21D;64300;45.034;38.910;2022-11-09T01:08:43;3.08;85.46
75688;HTU21D;64300;45.034;38.910;2022-11-09T01:11:10;3.06;85.48
75688;HTU21D;64300;45.034;38.910;2022-11-09T01:13:37;3.06;85.45
75688;HTU21D;64300;45.034;38.910;2022-11-09T01:16:09;3.09;85.45
75688;HTU21D;64300;45.034;38.910;2022-11-09T01:18:36;3.09;85.38
75688;HTU21D;64300;45.034;38.910;2022-11-09T01:21:05;3.06;85.39
75688;HTU21D;64300;45.034;38.910;2022-11-09T01:23:32;3.10;85.35
75688;HTU21D;64300;45.034;38.910;2022-11-09T01:26:04;3.09;85.37
75688;HTU21D;64300;45.034;38.910;2022-11-09T01:28:31;3.08;85.33
75688;HTU21D;64300;45.034;38.910;2022-11-09T01:31:03;3.08;85.28
75688;HTU21D;64300;45.034;38.910;2022-11-09T01:33:31;3.03;85.33
75688;HTU21D;64300;45.034;38.910;2022-11-09T01:36:14;3.00;85.51
75688;HTU21D;64300;45.034;38.910;2022-11-09T01:38:41;2.97;85.42
75688;HTU21D;64300;45.034;38.910;2022-11-09T01:41:11;2.96;85.48
75688;HTU21D;64300;45.034;38.910;2022-11-09T01:43:37;2.97;85.52
75688;HTU21D;64300;45.034;38.910;2022-11-09T01:48:50;3.02;85.70
75688;HTU21D;64300;45.034;38.910;2022-11-09T01:51:34;3.09;85.76
75688;HTU21D;64300;45.034;38.910;2022-11-09T01:54:11;3.14;86.03
75688;HTU21D;64300;45.034;38.910;2022-11-09T01:56:42;3.25;85.67
75688;HTU21D;64300;45.034;38.910;2022-11-09T01:59:11;3.34;85.67
75688;HTU21D;64300;45.034;38.910;2022-11-09T02:01:40;3.45;85.59
75688;HTU21D;64300;45.034;38.910;2022-11-09T02:04:26;3.57;85.49
75688;HTU21D;64300;45.034;38.910;2022-11-09T02:06:54;3.65;85.55
75688;HTU21D;64300;45.034;38.910;2022-11-09T02:11:58;3.79;85.35
75688;HTU21D;64300;45.034;38.910;2022-11-09T02:14:25;3.87;85.48
75688;HTU21D;64300;45.034;38.910;2022-11-09T02:16:53;3.98;85.18
75688;HTU21D;64300;45.034;38.910;2022-11-09T02:19:23;4.04;85.12
75688;HTU21D;64300;45.034;38.910;2022-11-09T02:21:49;4.13;84.82
75688;HTU21D;64300;45.034;38.910;2022-11-09T02:24:15;4.21;84.64
75688;HTU21D;64300;45.034;38.910;2022-11-09T02:26:48;4.31;84.52
75688;HTU21D;64300;45.034;38.910;2022-11-09T02:29:38;4.42;84.38
75688;HTU21D;64300;45.034;38.910;2022-11-09T02:32:12;4.48;84.11
75688;HTU21D;64300;45.034;38.910;2022-11-09T02:34:39;4.54;83.99
75688;HTU21D;64300;45.034;38.910;2022-11-09T02:37:06;4.62;83.82
75688;HTU21D;64300;45.034;38.910;2022-11-09T02:39:32;4.68;83.65
75688;HTU21D;64300;45.034;38.910;2022-11-09T02:42:05;4.72;83.46
75688;HTU21D;64300;45.034;38.910;2022-11-09T02:44:42;4.78;83.26
75688;HTU21D;64300;45.034;38.910;2022-11-09T02:47:10;4.80;83.05
75688;HTU21D;64300;45.034;38.910;2022-11-09T02:49:36;4.81;82.87
75688;HTU21D;64300;45.034;38.910;2022-11-09T02:52:02;4.82;82.71
75688;HTU21D;64300;45.034;38.910;2022-11-09T02:54:28;4.82;82.64
75688;HTU21D;64300;45.034;38.910;2022-11-09T02:56:55;4.82;82.53
75688;HTU21D;64300;45.034;38.910;2022-11-09T02:59:22;4.86;82.45
75688;HTU21D;64300;45.034;38.910;2022-11-09T03:01:48;4.86;82.43
75688;HTU21D;64300;45.034;38.910;2022-11-09T03:04:17;4.88;82.40
75688;HTU21D;64300;45.034;38.910;2022-11-09T03:06:43;4.90;82.36
75688;HTU21D;64300;45.034;38.910;2022-11-09T03:09:13;4.93;82.31
75688;HTU21D;64300;45.034;38.910;2022-11-09T03:11:40;4.91;82.39
75688;HTU21D;64300;45.034;38.910;2022-11-09T03:14:07;4.93;82.44
75688;HTU21D;64300;45.034;38.910;2022-11-09T03:16:39;4.91;82.88
75688;HTU21D;64300;45.034;38.910;2022-11-09T03:19:06;4.93;82.62
75688;HTU21D;64300;45.034;38.910;2022-11-09T03:21:33;4.95;82.63
75688;HTU21D;64300;45.034;38.910;2022-11-09T03:23:59;5.00;82.64
75688;HTU21D;64300;45.034;38.910;2022-11-09T03:26:26;5.04;82.60
75688;HTU21D;64300;45.034;38.910;2022-11-09T03:28:52;5.09;82.55
75688;HTU21D;64300;45.034;38.910;2022-11-09T03:31:18;5.15;82.51
75688;HTU21D;64300;45.034;38.910;2022-11-09T03:33:47;5.16;82.42
75688;HTU21D;64300;45.034;38.910;2022-11-09T03:36:13;5.19;82.55
75688;HTU21D;64300;45.034;38.910;2022-11-09T03:38:42;5.22;82.55
75688;HTU21D;64300;45.034;38.910;2022-11-09T03:41:08;5.22;82.49
75688;HTU21D;64300;45.034;38.910;2022-11-09T03:43:35;5.26;82.58
75688;HTU21D;64300;45.034;38.910;2022-11-09T03:46:02;5.31;82.60
75688;HTU21D;64300;45.034;38.910;2022-11-09T03:48:28;5.36;82.54
75688;HTU21D;64300;45.034;38.910;2022-11-09T03:50:54;5.40;82.44
75688;HTU21D;64300;45.034;38.910;2022-11-09T03:53:21;5.45;82.31
75688;HTU21D;64300;45.034;38.910;2022-11-09T03:55:49;5.47;82.23
75688;HTU21D;64300;45.034;38.910;2022-11-09T03:58:15;5.46;82.23
75688;HTU21D;64300;45.034;38.910;2022-11-09T04:00:41;5.48;82.28
75688;HTU21D;64300;45.034;38.910;2022-11-09T04:03:07;5.48;82.20
75688;HTU21D;64300;45.034;38.910;2022-11-09T04:05:33;5.46;82.26
75688;HTU21D;64300;45.034;38.910;2022-11-09T04:08:02;5.41;82.39
75688;HTU21D;64300;45.034;38.910;2022-11-09T04:10:28;5.39;82.58
75688;HTU21D;64300;45.034;38.910;2022-11-09T04:12:53;5.36;82.45
75688;HTU21D;64300;45.034;38.910;2022-11-09T04:15:19;5.38;82.39
75688;HTU21D;64300;45.034;38.910;2022-11-09T04:17:54;5.37;82.42
75688;HTU21D;64300;45.034;38.910;2022-11-09T04:20:23;5.36;82.48
75688;HTU21D;64300;45.034;38.910;2022-11-09T04:22:54;5.39;82.47
75688;HTU21D;64300;45.034;38.910;2022-11-09T04:25:20;5.38;82.32
75688;HTU21D;64300;45.034;38.910;2022-11-09T04:27:47;5.40;82.23
75688;HTU21D;64300;45.034;38.910;2022-11-09T04:30:16;5.45;82.18
75688;HTU21D;64300;45.034;38.910;2022-11-09T04:32:42;5.47;82.10
75688;HTU21D;64300;45.034;38.910;2022-11-09T04:35:08;5.50;81.99
75688;HTU21D;64300;45.034;38.910;2022-11-09T04:37:37;5.51;81.86
75688;HTU21D;64300;45.034;38.910;2022-11-09T04:40:06;5.51;81.84
75688;HTU21D;64300;45.034;38.910;2022-11-09T04:42:32;5.52;81.83
75688;HTU21D;64300;45.034;38.910;2022-11-09T04:45:01;5.52;81.75
75688;HTU21D;64300;45.034;38.910;2022-11-09T04:47:27;5.53;81.71
75688;HTU21D;64300;45.034;38.910;2022-11-09T04:49:58;5.53;81.71
75688;HTU21D;64300;45.034;38.910;2022-11-09T04:52:24;5.56;81.67
75688;HTU21D;64300;45.034;38.910;2022-11-09T04:54:50;5.59;81.63
75688;HTU21D;64300;45.034;38.910;2022-11-09T04:57:16;5.59;81.55
75688;HTU21D;64300;45.034;38.910;2022-11-09T04:59:42;5.59;81.68
75688;HTU21D;64300;45.034;38.910;2022-11-09T05:02:10;5.63;81.67
75688;HTU21D;64300;45.034;38.910;2022-11-09T05:04:36;5.66;81.61
75688;HTU21D;64300;45.034;38.910;2022-11-09T05:07:02;5.69;81.55
75688;HTU21D;64300;45.034;38.910;2022-11-09T05:09:32;5.75;81.44
75688;HTU21D;64300;45.034;38.910;2022-11-09T05:11:57;5.77;81.25
75688;HTU21D;64300;45.034;38.910;2022-11-09T05:14:26;5.77;81.20
75688;HTU21D;64300;45.034;38.910;2022-11-09T05:16:52;5.80;81.15
75688;HTU21D;64300;45.034;38.910;2022-11-09T05:19:21;5.81;81.08
75688;HTU21D;64300;45.034;38.910;2022-11-09T05:21:53;5.84;81.06
75688;HTU21D;64300;45.034;38.910;2022-11-09T05:24:24;5.89;80.99
75688;HTU21D;64300;45.034;38.910;2022-11-09T05:26:50;5.93;80.94
75688;HTU21D;64300;45.034;38.910;2022-11-09T05:29:25;5.96;80.91
75688;HTU21D;64300;45.034;38.910;2022-11-09T05:31:52;5.98;80.87
75688;HTU21D;64300;45.034;38.910;2022-11-09T05:34:20;5.99;80.83
75688;HTU21D;64300;45.034;38.910;2022-11-09T05:36:46;6.02;80.78
75688;HTU21D;64300;45.034;38.910;2022-11-09T05:39:14;6.05;80.75
75688;HTU21D;64300;45.034;38.910;2022-11-09T05:41:40;6.07;80.74
75688;HTU21D;64300;45.034;38.910;2022-11-09T05:44:09;6.12;80.70
75688;HTU21D;64300;45.034;38.910;2022-11-09T05:46:35;6.14;80.70
75688;HTU21D;64300;45.034;38.910;2022-11-09T05:49:01;6.21;80.65
75688;HTU21D;64300;45.034;38.910;2022-11-09T05:51:49;6.27;80.63
75688;HTU21D;64300;45.034;38.910;2022-11-09T05:54:17;6.33;80.50
75688;HTU21D;64300;45.034;38.910;2022-11-09T05:56:43;6.37;80.44
75688;HTU21D;64300;45.034;38.910;2022-11-09T05:59:09;6.42;80.46
75688;HTU21D;64300;45.034;38.910;2022-11-09T06:01:35;6.49;80.40
75688;HTU21D;64300;45.034;38.910;2022-11-09T06:04:01;6.46;80.11
75688;HTU21D;64300;45.034;38.910;2022-11-09T06:06:27;6.48;80.24
75688;HTU21D;64300;45.034;38.910;2022-11-09T06:08:54;6.44;80.40
75688;HTU21D;64300;45.034;38.910;2022-11-09T06:11:20;6.45;80.56
75688;HTU21D;64300;45.034;38.910;2022-11-09T06:13:46;6.50;80.57
75688;HTU21D;64300;45.034;38.910;2022-11-09T06:16:15;6.58;80.59
75688;HTU21D;64300;45.034;38.910;2022-11-09T06:18:42;6.69;80.42
75688;HTU21D;64300;45.034;38.910;2022-11-09T06:21:13;6.80;80.24
75688;HTU21D;64300;45.034;38.910;2022-11-09T06:23:39;6.90;80.06
75688;HTU21D;64300;45.034;38.910;2022-11-09T06:26:10;7.04;79.90
75688;HTU21D;64300;45.034;38.910;2022-11-09T06:28:37;7.16;79.69
75688;HTU21D;64300;45.034;38.910;2022-11-09T06:31:11;7.30;79.40
75688;HTU21D;64300;45.034;38.910;2022-11-09T06:33:44;7.43;79.14
75688;HTU21D;64300;45.034;38.910;2022-11-09T06:36:19;7.54;79.05
75688;HTU21D;64300;45.034;38.910;2022-11-09T06:38:50;7.61;78.83
75688;HTU21D;64300;45.034;38.910;2022-11-09T06:41:17;7.69;78.69
75688;HTU21D;64300;45.034;38.910;2022-11-09T06:43:44;7.76;78.59
75688;HTU21D;64300;45.034;38.910;2022-11-09T06:46:13;7.85;78.50
75688;HTU21D;64300;45.034;38.910;2022-11-09T06:48:44;7.92;78.27
75688;HTU21D;64300;45.034;38.910;2022-11-09T06:51:13;8.02;78.18
75688;HTU21D;64300;45.034;38.910;2022-11-09T06:53:39;8.12;78.06
75688;HTU21D;64300;45.034;38.910;2022-11-09T06:56:06;8.19;77.82
75688;HTU21D;64300;45.034;38.910;2022-11-09T06:58:33;8.24;77.89
75688;HTU21D;64300;45.034;38.910;2022-11-09T07:00:59;8.33;77.87
75688;HTU21D;64300;45.034;38.910;2022-11-09T07:03:28;8.41;77.60
75688;HTU21D;64300;45.034;38.910;2022-11-09T07:05:54;8.48;77.57
75688;HTU21D;64300;45.034;38.910;2022-11-09T07:08:19;8.57;77.36
75688;HTU21D;64300;45.034;38.910;2022-11-09T07:10:46;8.63;77.31
75688;HTU21D;64300;45.034;38.910;2022-11-09T07:13:11;8.72;77.20
75688;HTU21D;64300;45.034;38.910;2022-11-09T07:15:40;8.78;77.11
75688;HTU21D;64300;45.034;38.910;2022-11-09T07:18:09;8.82;76.89
75688;HTU21D;64300;45.034;38.910;2022-11-09T07:20:36;8.90;76.70
75688;HTU21D;64300;45.034;38.910;2022-11-09T07:23:22;8.95;76.34
75688;HTU21D;64300;45.034;38.910;2022-11-09T07:26:36;9.01;76.19
75688;HTU21D;64300;45.034;38.910;2022-11-09T07:44:34;9.29;75.79
75688;HTU21D;64300;45.034;38.910;2022-11-09T07:47:03;9.38;75.71
75688;HTU21D;64300;45.034;38.910;2022-11-09T07:49:31;9.48;75.76
75688;HTU21D;64300;45.034;38.910;2022-11-09T07:52:03;9.59;75.54
75688;HTU21D;64300;45.034;38.910;2022-11-09T09:04:19;11.91;66.46
75688;HTU21D;64300;45.034;38.910;2022-11-09T09:06:45;11.83;67.19
75688;HTU21D;64300;45.034;38.910;2022-11-09T09:20:32;11.60;69.20
75688;HTU21D;64300;45.034;38.910;2022-11-09T09:22:59;11.60;69.18
75688;HTU21D;64300;45.034;38.910;2022-11-09T09:25:28;11.52;68.32
75688;HTU21D;64300;45.034;38.910;2022-11-09T09:27:55;11.42;68.56
75688;HTU21D;64300;45.034;38.910;2022-11-09T09:30:24;11.40;68.80
75688;HTU21D;64300;45.034;38.910;2022-11-09T09:32:59;11.39;68.83
75688;HTU21D;64300;45.034;38.910;2022-11-09T09:35:26;11.44;69.04
75688;HTU21D;64300;45.034;38.910;2022-11-09T09:37:52;11.53;69.21
75688;HTU21D;64300;45.034;38.910;2022-11-09T09:40:35;11.64;69.07
75688;HTU21D;64300;45.034;38.910;2022-11-09T09:43:03;11.74;68.81
75688;HTU21D;64300;45.034;38.910;2022-11-09T10:15:14;13.77;59.48
75688;HTU21D;64300;45.034;38.910;2022-11-09T10:18:00;13.71;61.89
75688;HTU21D;64300;45.034;38.910;2022-11-09T10:20:34;13.65;62.40
75688;HTU21D;64300;45.034;38.910;2022-11-09T10:23:32;13.52;62.43
75688;HTU21D;64300;45.034;38.910;2022-11-09T10:28:54;13.22;63.25
75688;HTU21D;64300;45.034;38.910;2022-11-09T10:31:22;13.12;63.31
75688;HTU21D;64300;45.034;38.910;2022-11-09T10:34:05;13.05;62.74
75688;HTU21D;64300;45.034;38.910;2022-11-09T10:36:44;13.03;64.04
75688;HTU21D;64300;45.034;38.910;2022-11-09T10:39:13;12.99;64.13
75688;HTU21D;64300;45.034;38.910;2022-11-09T10:41:58;12.90;64.26
75688;HTU21D;64300;45.034;38.910;2022-11-09T10:44:42;12.75;61.87
75688;HTU21D;64300;45.034;38.910;2022-11-09T10:47:27;12.73;64.66
75688;HTU21D;64300;45.034;38.910;2022-11-09T10:53:27;12.70;64.78
75688;HTU21D;64300;45.034;38.910;2022-11-09T10:56:17;12.66;64.92
75688;HTU21D;64300;45.034;38.910;2022-11-09T10:59:02;12.63;64.92
75688;HTU21D;64300;45.034;38.910;2022-11-09T11:01:46;12.60;65.18
75688;HTU21D;64300;45.034;38.910;2022-11-09T11:04:30;12.52;65.13
75688;HTU21D;64300;45.034;38.910;2022-11-09T11:07:30;12.44;65.25
75688;HTU21D;64300;45.034;38.910;2022-11-09T11:10:19;12.28;64.02
75688;HTU21D;64300;45.034;38.910;2022-11-09T11:16:33;12.19;63.58
75688;HTU21D;64300;45.034;38.910;2022-11-09T11:22:27;12.15;65.66
75688;HTU21D;64300;45.034;38.910;2022-11-09T11:25:21;12.14;65.66
75688;HTU21D;64300;45.034;38.910;2022-11-09T11:31:20;12.07;65.48
75688;HTU21D;64300;45.034;38.910;2022-11-09T11:34:13;12.06;65.87
75688;HTU21D;64300;45.034;38.910;2022-11-09T11:40:19;12.05;64.31
75688;HTU21D;64300;45.034;38.910;2022-11-09T11:43:27;12.04;65.66
75688;HTU21D;64300;45.034;38.910;2022-11-09T11:46:30;12.02;65.56
75688;HTU21D;64300;45.034;38.910;2022-11-09T11:52:58;11.96;64.08
75688;HTU21D;64300;45.034;38.910;2022-11-09T11:56:32;11.94;65.45
75688;HTU21D;64300;45.034;38.910;2022-11-09T11:59:30;11.90;66.07
75688;HTU21D;64300;45.034;38.910;2022-11-09T12:06:20;11.79;66.10
75688;HTU21D;64300;45.034;38.910;2022-11-09T12:09:13;11.76;66.64
75688;HTU21D;64300;45.034;38.910;2022-11-09T12:12:20;11.78;66.65
75688;HTU21D;64300;45.034;38.910;2022-11-09T12:29:38;11.74;66.77
75688;HTU21D;64300;45.034;38.910;2022-11-09T12:37:13;11.62;66.32
75688;HTU21D;64300;45.034;38.910;2022-11-09T12:40:27;11.59;67.17
75688;HTU21D;64300;45.034;38.910;2022-11-09T12:43:33;11.58;67.06
75688;HTU21D;64300;45.034;38.910;2022-11-09T12:52:53;11.48;67.39
75688;HTU21D;64300;45.034;38.910;2022-11-09T12:55:45;11.49;67.46
75688;HTU21D;64300;45.034;38.910;2022-11-09T12:58:33;11.51;67.54
75688;HTU21D;64300;45.034;38.910;2022-11-09T13:04:21;11.54;67.63
75688;HTU21D;64300;45.034;38.910;2022-11-09T13:09:57;11.57;67.60
75688;HTU21D;64300;45.034;38.910;2022-11-09T13:18:53;11.60;67.84
75688;HTU21D;64300;45.034;38.910;2022-11-09T13:21:38;11.60;67.88
75688;HTU21D;64300;45.034;38.910;2022-11-09T13:33:18;11.48;68.01
75688;HTU21D;64300;45.034;38.910;2022-11-09T13:39:28;11.39;68.04
75688;HTU21D;64300;45.034;38.910;2022-11-09T13:42:30;11.33;68.10
75688;HTU21D;64300;45.034;38.910;2022-11-09T13:48:44;11.19;68.33
75688;HTU21D;64300;45.034;38.910;2022-11-09T13:51:45;11.11;68.37
75688;HTU21D;64300;45.034;38.910;2022-11-09T13:54:35;11.07;68.45
75688;HTU21D;64300;45.034;38.910;2022-11-09T13:57:21;11.04;68.71
75688;HTU21D;64300;45.034;38.910;2022-11-09T14:00:14;11.02;68.84
75688;HTU21D;64300;45.034;38.910;2022-11-09T14:03:23;10.99;68.88
75688;HTU21D;64300;45.034;38.910;2022-11-09T14:06:10;10.95;68.86
75688;HTU21D;64300;45.034;38.910;2022-11-09T14:08:57;10.93;69.05
75688;HTU21D;64300;45.034;38.910;2022-11-09T14:11:49;10.90;69.11
75688;HTU21D;64300;45.034;38.910;2022-11-09T14:18:18;10.82;69.26
75688;HTU21D;64300;45.034;38.910;2022-11-09T14:24:19;10.63;69.62
75688;HTU21D;64300;45.034;38.910;2022-11-09T14:27:13;10.51;70.20
75688;HTU21D;64300;45.034;38.910;2022-11-09T14:29:59;10.45;70.17
75688;HTU21D;64300;45.034;38.910;2022-11-09T14:32:51;10.41;70.24
75688;HTU21D;64300;45.034;38.910;2022-11-09T14:35:40;10.33;70.59
75688;HTU21D;64300;45.034;38.910;2022-11-09T14:38:29;10.23;70.57
75688;HTU21D;64300;45.034;38.910;2022-11-09T14:41:23;10.16;70.80
75688;HTU21D;64300;45.034;38.910;2022-11-09T14:47:19;10.05;71.04
75688;HTU21D;64300;45.034;38.910;2022-11-09T14:50:08;9.97;71.30
75688;HTU21D;64300;45.034;38.910;2022-11-09T14:52:58;9.91;71.36
75688;HTU21D;64300;45.034;38.910;2022-11-09T14:55:44;9.86;71.56
75688;HTU21D;64300;45.034;38.910;2022-11-09T14:58:34;9.82;71.84
75688;HTU21D;64300;45.034;38.910;2022-11-09T15:01:23;9.78;72.09
75688;HTU21D;64300;45.034;38.910;2022-11-09T15:04:18;9.74;72.34
75688;HTU21D;64300;45.034;38.910;2022-11-09T15:07:18;9.75;72.13
75688;HTU21D;64300;45.034;38.910;2022-11-09T15:10:16;9.69;72.12
75688;HTU21D;64300;45.034;38.910;2022-11-09T15:13:02;9.62;72.12
75688;HTU21D;64300;45.034;38.910;2022-11-09T15:15:51;9.53;72.29
75688;HTU21D;64300;45.034;38.910;2022-11-09T15:18:43;9.41;75.11
75688;HTU21D;64300;45.034;38.910;2022-11-09T15:21:36;9.38;72.81
75688;HTU21D;64300;45.034;38.910;2022-11-09T15:24:22;9.27;73.24
75688;HTU21D;64300;45.034;38.910;2022-11-09T15:27:32;9.20;75.11
75688;HTU21D;64300;45.034;38.910;2022-11-09T15:36:52;8.98;73.83
75688;HTU21D;64300;45.034;38.910;2022-11-09T15:39:37;8.88;75.32
75688;HTU21D;64300;45.034;38.910;2022-11-09T15:42:22;8.90;74.21
75688;HTU21D;64300;45.034;38.910;2022-11-09T15:45:11;8.85;74.19
75688;HTU21D;64300;45.034;38.910;2022-11-09T15:47:56;8.76;74.26
75688;HTU21D;64300;45.034;38.910;2022-11-09T15:50:44;8.71;74.48
75688;HTU21D;64300;45.034;38.910;2022-11-09T15:53:28;8.64;74.65
75688;HTU21D;64300;45.034;38.910;2022-11-09T15:56:20;8.60;75.05
75688;HTU21D;64300;45.034;38.910;2022-11-09T15:59:05;8.56;75.38
75688;HTU21D;64300;45.034;38.910;2022-11-09T16:01:52;8.55;75.28
75688;HTU21D;64300;45.034;38.910;2022-11-09T16:04:38;8.51;75.27
75688;HTU21D;64300;45.034;38.910;2022-11-09T16:07:51;8.51;75.37
75688;HTU21D;64300;45.034;38.910;2022-11-09T16:10:36;8.45;75.62
75688;HTU21D;64300;45.034;38.910;2022-11-09T16:13:23;8.37;76.40
75688;HTU21D;64300;45.034;38.910;2022-11-09T16:16:08;8.36;76.07
75688;HTU21D;64300;45.034;38.910;2022-11-09T16:18:56;8.28;76.19
75688;HTU21D;64300;45.034;38.910;2022-11-09T16:21:41;8.21;78.92
75688;HTU21D;64300;45.034;38.910;2022-11-09T16:24:28;8.19;77.21
75688;HTU21D;64300;45.034;38.910;2022-11-09T16:27:14;8.22;77.32
75688;HTU21D;64300;45.034;38.910;2022-11-09T16:29:59;8.23;77.04
75688;HTU21D;64300;45.034;38.910;2022-11-09T16:32:44;8.27;76.79
75688;HTU21D;64300;45.034;38.910;2022-11-09T16:35:33;8.26;76.79
75688;HTU21D;64300;45.034;38.910;2022-11-09T16:38:18;8.18;80.33
75688;HTU21D;64300;45.034;38.910;2022-11-09T16:41:03;8.14;78.09
75688;HTU21D;64300;45.034;38.910;2022-11-09T16:43:52;8.14;81.46
75688;HTU21D;64300;45.034;38.910;2022-11-09T16:46:39;8.12;78.43
75688;HTU21D;64300;45.034;38.910;2022-11-09T16:49:25;8.12;79.18
75688;HTU21D;64300;45.034;38.910;2022-11-09T16:52:13;8.08;79.84
75688;HTU21D;64300;45.034;38.910;2022-11-09T16:54:57;8.12;79.08
75688;HTU21D;64300;45.034;38.910;2022-11-09T16:57:42;8.12;79.98
75688;HTU21D;64300;45.034;38.910;2022-11-09T17:00:27;8.11;79.69
75688;HTU21D;64300;45.034;38.910;2022-11-09T17:03:13;8.11;81.47
75688;HTU21D;64300;45.034;38.910;2022-11-09T17:06:01;8.14;79.48
75688;HTU21D;64300;45.034;38.910;2022-11-09T17:08:46;8.14;78.88
75688;HTU21D;64300;45.034;38.910;2022-11-09T17:11:31;8.05;82.53
75688;HTU21D;64300;45.034;38.910;2022-11-09T17:14:16;8.00;83.08
75688;HTU21D;64300;45.034;38.910;2022-11-09T17:17:06;8.00;80.78
75688;HTU21D;64300;45.034;38.910;2022-11-09T17:19:51;7.99;80.01
75688;HTU21D;64300;45.034;38.910;2022-11-09T17:22:37;7.98;80.17
75688;HTU21D;64300;45.034;38.910;2022-11-09T17:25:23;7.94;79.62
75688;HTU21D;64300;45.034;38.910;2022-11-09T17:28:08;7.90;80.50
75688;HTU21D;64300;45.034;38.910;2022-11-09T17:30:53;7.89;79.73
75688;HTU21D;64300;45.034;38.910;2022-11-09T17:33:37;7.86;79.90
75688;HTU21D;64300;45.034;38.910;2022-11-09T17:36:22;7.85;79.41
75688;HTU21D;64300;45.034;38.910;2022-11-09T17:39:06;7.77;79.28
75688;HTU21D;64300;45.034;38.910;2022-11-09T17:41:51;7.70;79.24
75688;HTU21D;64300;45.034;38.910;2022-11-09T17:44:36;7.60;79.30
75688;HTU21D;64300;45.034;38.910;2022-11-09T17:47:28;7.52;81.43
75688;HTU21D;64300;45.034;38.910;2022-11-09T17:50:12;7.47;81.11
75688;HTU21D;64300;45.034;38.910;2022-11-09T17:52:57;7.49;81.03
75688;HTU21D;64300;45.034;38.910;2022-11-09T17:55:41;7.49;80.92
75688;HTU21D;64300;45.034;38.910;2022-11-09T17:58:27;7.47;81.62
75688;HTU21D;64300;45.034;38.910;2022-11-09T18:01:13;7.45;82.93
75688;HTU21D;64300;45.034;38.910;2022-11-09T18:03:58;7.42;82.02
75688;HTU21D;64300;45.034;38.910;2022-11-09T18:06:42;7.41;82.84
75688;HTU21D;64300;45.034;38.910;2022-11-09T18:09:27;7.42;80.90
75688;HTU21D;64300;45.034;38.910;2022-11-09T18:12:14;7.42;82.01
75688;HTU21D;64300;45.034;38.910;2022-11-09T18:14:59;7.46;81.06
75688;HTU21D;64300;45.034;38.910;2022-11-09T18:17:44;7.46;81.95
75688;HTU21D;64300;45.034;38.910;2022-11-09T18:20:29;7.49;81.38
75688;HTU21D;64300;45.034;38.910;2022-11-09T18:23:14;7.48;80.75
75688;HTU21D;64300;45.034;38.910;2022-11-09T18:25:59;7.50;80.51
75688;HTU21D;64300;45.034;38.910;2022-11-09T18:28:44;7.47;81.07
75688;HTU21D;64300;45.034;38.910;2022-11-09T18:31:30;7.46;80.77
75688;HTU21D;64300;45.034;38.910;2022-11-09T18:34:16;7.47;81.33
75688;HTU21D;64300;45.034;38.910;2022-11-09T18:37:00;7.49;81.24
75688;HTU21D;64300;45.034;38.910;2022-11-09T18:39:45;7.49;81.54
75688;HTU21D;64300;45.034;38.910;2022-11-09T18:42:29;7.49;84.08
75688;HTU21D;64300;45.034;38.910;2022-11-09T18:45:14;7.56;81.65
75688;HTU21D;64300;45.034;38.910;2022-11-09T18:47:58;7.56;81.40
75688;HTU21D;64300;45.034;38.910;2022-11-09T18:50:49;7.56;81.53
75688;HTU21D;64300;45.034;38.910;2022-11-09T18:53:36;7.56;80.78
75688;HTU21D;64300;45.034;38.910;2022-11-09T18:56:23;7.53;81.01
75688;HTU21D;64300;45.034;38.910;2022-11-09T18:59:11;7.48;80.90
75688;HTU21D;64300;45.034;38.910;2022-11-09T19:02:00;7.45;81.55
75688;HTU21D;64300;45.034;38.910;2022-11-09T19:04:46;7.42;82.04
75688;HTU21D;64300;45.034;38.910;2022-11-09T19:07:31;7.41;83.03
75688;HTU21D;64300;45.034;38.910;2022-11-09T19:10:16;7.39;82.73
75688;HTU21D;64300;45.034;38.910;2022-11-09T19:13:01;7.42;81.45
75688;HTU21D;64300;45.034;38.910;2022-11-09T19:15:46;7.38;83.03
75688;HTU21D;64300;45.034;38.910;2022-11-09T19:18:36;7.39;83.49
75688;HTU21D;64300;45.034;38.910;2022-11-09T19:21:54;7.38;84.69
75688;HTU21D;64300;45.034;38.910;2022-11-09T19:24:39;7.39;83.66
75688;HTU21D;64300;45.034;38.910;2022-11-09T19:27:24;7.37;83.35
75688;HTU21D;64300;45.034;38.910;2022-11-09T19:30:12;7.35;84.35
75688;HTU21D;64300;45.034;38.910;2022-11-09T19:32:57;7.38;82.10
75688;HTU21D;64300;45.034;38.910;2022-11-09T19:35:41;7.38;81.55
75688;HTU21D;64300;45.034;38.910;2022-11-09T19:38:26;7.31;81.68
75688;HTU21D;64300;45.034;38.910;2022-11-09T19:41:10;7.24;84.54
75688;HTU21D;64300;45.034;38.910;2022-11-09T19:43:56;7.22;82.78
75688;HTU21D;64300;45.034;38.910;2022-11-09T19:47:11;7.20;85.42
75688;HTU21D;64300;45.034;38.910;2022-11-09T19:49:56;7.22;83.35
75688;HTU21D;64300;45.034;38.910;2022-11-09T19:52:40;7.22;83.84
75688;HTU21D;64300;45.034;38.910;2022-11-09T19:55:25;7.16;82.46
75688;HTU21D;64300;45.034;38.910;2022-11-09T19:58:10;7.12;82.75
75688;HTU21D;64300;45.034;38.910;2022-11-09T20:01:06;7.10;84.42
75688;HTU21D;64300;45.034;38.910;2022-11-09T20:03:53;7.11;83.03
75688;HTU21D;64300;45.034;38.910;2022-11-09T20:06:38;7.10;82.87